Time;durP1;ratioP1;P1;durP2;ratioP2;P2;SDS_P1;SDS_P2;PMS_P1;PMS_P2;Temp;Humidity;BMP_temperature;BMP_pressure;BME280_temperature;BME280_humidity;BME280_pressure;Samples;Min_cycle;Max_cycle;Signal;HPM_P1;HPM_P2
2022/07/23 00:03:36;;;;;;;41.72;25.80;;;;;;;18.68;100.00;100802.16;8280860;28;20042;-61
2022/07/23 00:07:37;;;;;;;42.95;24.38;;;;;;;18.56;100.00;100795.44;8259861;28;20038;-61
2022/07/23 00:11:37;;;;;;;37.42;23.58;;;;;;;18.56;100.00;100792.69;8276847;28;20123;-61
2022/07/23 00:15:37;;;;;;;42.65;24.50;;;;;;;18.62;100.00;100802.03;8281065;28;20049;-61
2022/07/23 00:19:38;;;;;;;46.78;24.77;;;;;;;18.65;100.00;100808.00;8310061;28;20122;-61
2022/07/23 00:23:38;;;;;;;45.72;27.85;;;;;;;18.66;100.00;100792.44;8268083;28;20096;-61
2022/07/23 00:27:39;;;;;;;47.47;27.63;;;;;;;18.59;100.00;100781.38;8262352;28;20039;-61
2022/07/23 00:31:39;;;;;;;41.53;26.02;;;;;;;18.58;100.00;100781.56;8310441;28;20451;-61
2022/07/23 00:35:42;;;;;;;49.40;27.75;;;;;;;18.62;100.00;100770.03;8271993;28;20129;-61
2022/07/23 00:39:42;;;;;;;46.28;26.90;;;;;;;18.55;100.00;100774.56;8288215;28;20045;-61
2022/07/23 00:43:43;;;;;;;46.08;27.20;;;;;;;18.40;100.00;100756.38;8279646;28;20495;-61
2022/07/23 00:47:43;;;;;;;56.42;29.98;;;;;;;18.28;100.00;100761.44;8280567;28;20048;-61
2022/07/23 00:51:44;;;;;;;55.45;28.27;;;;;;;18.22;100.00;100770.38;8280731;28;20125;-61
2022/07/23 00:55:44;;;;;;;48.22;28.40;;;;;;;18.29;100.00;100774.06;8270622;28;20039;-60
2022/07/23 00:59:45;;;;;;;44.17;27.77;;;;;;;18.31;100.00;100771.16;8266995;28;20036;-60
2022/07/23 01:03:45;;;;;;;46.72;27.77;;;;;;;18.30;100.00;100775.75;8265588;28;20523;-60
2022/07/23 01:07:46;;;;;;;55.00;29.37;;;;;;;18.22;100.00;100769.50;8280235;28;20088;-60
2022/07/23 01:11:46;;;;;;;48.85;27.27;;;;;;;18.31;100.00;100777.47;8273791;28;20820;-60
2022/07/23 01:15:47;;;;;;;50.85;28.85;;;;;;;18.45;100.00;100773.13;8265878;28;20438;-60
2022/07/23 01:19:48;;;;;;;51.65;28.35;;;;;;;18.42;100.00;100763.38;8263842;28;20385;-61
2022/07/23 01:23:48;;;;;;;46.83;27.30;;;;;;;18.46;100.00;100764.72;8266910;28;20038;-61
2022/07/23 01:27:49;;;;;;;49.07;27.60;;;;;;;18.48;100.00;100764.53;8279780;28;20113;-61
2022/07/23 01:31:49;;;;;;;45.05;27.10;;;;;;;18.28;100.00;100766.91;8282834;28;20281;-61
2022/07/23 01:35:49;;;;;;;48.83;28.40;;;;;;;18.24;100.00;100775.66;8276098;28;20069;-61
2022/07/23 01:39:50;;;;;;;49.22;28.42;;;;;;;18.19;100.00;100773.47;8279124;28;20391;-61
2022/07/23 01:43:50;;;;;;;45.10;26.63;;;;;;;18.06;100.00;100773.25;8278197;28;20038;-61
2022/07/23 01:47:51;;;;;;;51.33;27.90;;;;;;;17.94;100.00;100755.53;8265653;28;20406;-61
2022/07/23 01:52:10;;;;;;;46.97;28.20;;;;;;;17.82;100.00;100759.72;8263272;28;20449;-61
2022/07/23 01:56:11;;;;;;;52.45;28.75;;;;;;;17.86;100.00;100752.84;8255327;28;20042;-61
2022/07/23 02:00:11;;;;;;;55.08;28.67;;;;;;;17.80;100.00;100745.38;8286376;28;20415;-61
2022/07/23 02:04:12;;;;;;;48.30;28.80;;;;;;;17.52;100.00;100739.59;8265881;28;20344;-61
2022/07/23 02:08:12;;;;;;;57.22;29.65;;;;;;;17.55;100.00;100736.50;8280074;28;20503;-61
2022/07/23 02:12:13;;;;;;;58.88;31.25;;;;;;;17.50;100.00;100751.72;8278567;28;20124;-61
2022/07/23 02:16:13;;;;;;;61.95;33.38;;;;;;;17.35;100.00;100742.53;8278324;28;20048;-61
2022/07/23 02:20:14;;;;;;;62.30;32.95;;;;;;;17.46;100.00;100737.56;8277367;28;20049;-61
2022/07/23 02:24:15;;;;;;;59.55;32.35;;;;;;;17.54;100.00;100736.66;8271390;28;20049;-61
2022/07/23 02:28:15;;;;;;;63.00;32.03;;;;;;;17.27;100.00;100737.13;8272048;28;20053;-60
2022/07/23 02:32:16;;;;;;;68.07;33.78;;;;;;;17.24;100.00;100737.47;8253986;28;20053;-61
2022/07/23 02:36:16;;;;;;;63.90;33.17;;;;;;;17.33;100.00;100737.25;8276123;28;20120;-60
2022/07/23 02:40:18;;;;;;;69.38;34.58;;;;;;;17.45;100.00;100732.28;8271880;28;20125;-61
2022/07/23 02:44:18;;;;;;;59.20;31.85;;;;;;;17.38;100.00;100739.44;8264793;28;20051;-61
2022/07/23 02:48:19;;;;;;;59.10;31.48;;;;;;;17.14;100.00;100753.25;8264495;28;20074;-61
2022/07/23 02:52:19;;;;;;;65.15;33.75;;;;;;;17.14;100.00;100750.50;8283811;28;20277;-61
2022/07/23 02:56:19;;;;;;;69.37;34.80;;;;;;;17.12;100.00;100749.81;8285600;28;20474;-60
2022/07/23 03:00:20;;;;;;;71.22;34.72;;;;;;;17.16;100.00;100746.56;8285688;28;20277;-61
2022/07/23 03:04:20;;;;;;;64.43;33.65;;;;;;;17.06;100.00;100753.25;8277607;28;20058;-61
2022/07/23 03:08:21;;;;;;;60.53;32.90;;;;;;;16.92;100.00;100754.84;8281587;28;20070;-60
2022/07/23 03:12:21;;;;;;;76.32;36.75;;;;;;;16.96;100.00;100756.19;8273171;28;20050;-60
2022/07/23 03:16:22;;;;;;;71.40;35.75;;;;;;;16.99;100.00;100758.56;8275141;28;20173;-61
2022/07/23 03:20:22;;;;;;;64.28;34.03;;;;;;;16.92;100.00;100759.44;8283107;28;20415;-60
2022/07/23 03:24:53;;;;;;;49.40;28.63;;;;;;;16.80;100.00;100756.25;8283365;28;20038;-60
2022/07/23 03:28:43;;;;;;;62.63;26.60;;;;;;;16.60;100.00;100759.53;8273913;28;20038;-61
2022/07/23 03:32:44;;;;;;;43.53;24.67;;;;;;;16.38;100.00;100754.75;8263316;28;20089;-60
2022/07/23 03:36:44;;;;;;;65.25;26.75;;;;;;;16.40;100.00;100753.56;8262979;28;20034;-60
2022/07/23 03:40:45;;;;;;;57.40;29.77;;;;;;;16.30;100.00;100752.03;8271201;28;20034;-60
2022/07/23 03:44:45;;;;;;;52.92;30.50;;;;;;;16.28;100.00;100754.91;8277292;28;20289;-61
2022/07/23 03:48:46;;;;;;;63.30;32.97;;;;;;;16.45;100.00;100761.25;8284615;28;20065;-61
2022/07/23 03:52:46;;;;;;;69.03;34.10;;;;;;;16.52;100.00;100756.81;8276952;28;20039;-61
2022/07/23 03:56:47;;;;;;;68.60;33.40;;;;;;;16.45;100.00;100756.66;8282925;28;20624;-61
2022/07/23 04:00:47;;;;;;;66.55;32.85;;;;;;;16.41;100.00;100754.41;8283757;28;20077;-60
2022/07/23 04:04:47;;;;;;;67.07;32.75;;;;;;;16.40;100.00;100758.16;8273100;28;20133;-61
2022/07/23 04:08:48;;;;;;;63.13;31.48;;;;;;;16.31;100.00;100765.50;8273894;28;20045;-61
2022/07/23 04:12:48;;;;;;;69.85;33.78;;;;;;;16.41;100.00;100762.59;8282861;28;20042;-61
2022/07/23 04:16:48;;;;;;;62.97;32.40;;;;;;;16.27;100.00;100757.81;8281905;28;20109;-61
2022/07/23 04:20:50;;;;;;;63.03;31.10;;;;;;;16.34;100.00;100764.28;8268621;28;20092;-61
2022/07/23 04:24:51;;;;;;;58.42;29.88;;;;;;;16.35;100.00;100766.00;8264070;28;20077;-61
2022/07/23 04:28:51;;;;;;;65.97;31.13;;;;;;;16.44;100.00;100776.75;8280590;28;20045;-61
2022/07/23 04:32:52;;;;;;;68.50;34.38;;;;;;;16.59;100.00;100774.22;8290149;28;20053;-61
2022/07/23 04:36:53;;;;;;;69.25;34.15;;;;;;;16.74;100.00;100777.94;8270086;28;20034;-61
2022/07/23 04:40:53;;;;;;;58.50;30.55;;;;;;;16.82;100.00;100791.56;8274845;28;20434;-61
2022/07/23 04:44:54;;;;;;;55.53;29.65;;;;;;;16.93;100.00;100804.88;8271602;28;20133;-61
2022/07/23 04:48:54;;;;;;;46.92;26.80;;;;;;;17.03;100.00;100808.25;8279922;28;20124;-61
2022/07/23 04:52:55;;;;;;;47.03;26.10;;;;;;;17.19;100.00;100819.13;8280286;28;20037;-61
2022/07/23 04:56:55;;;;;;;43.08;23.95;;;;;;;17.38;100.00;100824.16;8277003;28;20057;-60
2022/07/23 05:00:57;;;;;;;35.10;22.97;;;;;;;17.46;100.00;100825.03;8275691;28;20117;-61
2022/07/23 05:04:58;;;;;;;40.92;23.52;;;;;;;17.68;100.00;100823.38;8266859;28;20412;-61
2022/07/23 05:08:58;;;;;;;43.25;25.48;;;;;;;17.83;100.00;100832.53;8270785;28;20037;-61
2022/07/23 05:12:58;;;;;;;42.97;24.38;;;;;;;17.87;100.00;100833.88;8274964;28;20038;-61
2022/07/23 05:16:59;;;;;;;44.22;24.20;;;;;;;18.03;100.00;100822.88;8274575;28;20042;-61
2022/07/23 05:20:59;;;;;;;45.28;25.67;;;;;;;18.20;100.00;100823.59;8277884;28;20048;-60
2022/07/23 05:24:59;;;;;;;51.60;24.97;;;;;;;18.20;100.00;100829.91;8274003;28;20104;-61
2022/07/23 05:29:00;;;;;;;44.60;23.07;;;;;;;18.21;100.00;100828.88;8264366;28;20619;-61
2022/07/23 05:33:00;;;;;;;43.88;23.70;;;;;;;18.30;100.00;100830.50;8265647;28;20269;-61
2022/07/23 05:37:00;;;;;;;46.13;24.33;;;;;;;18.26;100.00;100829.19;8279665;28;20117;-61
2022/07/23 05:41:01;;;;;;;54.83;25.97;;;;;;;18.23;100.00;100831.41;8279485;28;20172;-61
2022/07/23 05:45:03;;;;;;;42.97;25.15;;;;;;;18.37;100.00;100838.88;8269996;28;21198;-61
2022/07/23 05:49:03;;;;;;;54.25;26.52;;;;;;;18.63;100.00;100839.38;8269069;28;20034;-61
2022/07/23 05:53:04;;;;;;;48.92;26.48;;;;;;;18.66;100.00;100839.00;8270025;28;20037;-61
2022/07/23 05:57:04;;;;;;;48.92;26.10;;;;;;;18.74;100.00;100839.78;8273147;28;20041;-61
2022/07/23 06:01:05;;;;;;;55.22;27.50;;;;;;;18.79;100.00;100848.28;8313611;28;20038;-61
2022/07/23 06:05:07;;;;;;;48.35;24.92;;;;;;;18.92;100.00;100839.44;8273876;28;20185;-60
2022/07/23 06:09:07;;;;;;;48.78;25.17;;;;;;;19.13;100.00;100854.09;8272600;28;20050;-60
2022/07/23 06:13:08;;;;;;;44.28;25.98;;;;;;;19.19;100.00;100858.81;8277649;28;20046;-61
2022/07/23 06:17:08;;;;;;;46.20;26.25;;;;;;;19.17;100.00;100858.19;8279035;28;20470;-61
2022/07/23 06:21:09;;;;;;;50.58;28.05;;;;;;;19.19;100.00;100858.81;8262334;28;20041;-61
2022/07/23 06:25:09;;;;;;;51.13;29.65;;;;;;;19.17;100.00;100863.66;8264896;28;20050;-61
2022/07/23 06:29:10;;;;;;;56.42;30.63;;;;;;;19.11;100.00;100864.41;8277572;28;20037;-61
2022/07/23 06:33:11;;;;;;;54.38;29.90;;;;;;;19.08;100.00;100861.19;8283356;28;20581;-61
2022/07/23 06:37:11;;;;;;;46.88;29.38;;;;;;;19.25;100.00;100869.03;8285173;28;21053;-61
2022/07/23 06:41:12;;;;;;;49.00;27.83;;;;;;;19.31;100.00;100860.09;8265684;28;20426;-61
2022/07/23 06:45:13;;;;;;;45.28;28.77;;;;;;;19.80;100.00;100862.25;8286196;28;20145;-61
2022/07/23 06:49:14;;;;;;;54.50;30.25;;;;;;;19.80;100.00;100870.50;8278259;28;20472;-61
2022/07/23 06:53:14;;;;;;;46.70;28.15;;;;;;;19.96;100.00;100875.75;8276851;28;20052;-61
2022/07/23 06:57:15;;;;;;;46.42;26.95;;;;;;;20.27;100.00;100876.38;8277411;28;20046;-61
2022/07/23 07:01:15;;;;;;;49.65;28.10;;;;;;;20.11;100.00;100879.31;8278870;28;20111;-61
2022/07/23 07:05:15;;;;;;;45.77;28.00;;;;;;;20.29;100.00;100882.53;8280367;28;20034;-61
2022/07/23 07:09:16;;;;;;;40.95;24.95;;;;;;;20.49;100.00;100878.94;8279766;28;20500;-61
2022/07/23 07:13:16;;;;;;;38.20;23.92;;;;;;;20.61;100.00;100887.50;8274790;28;20474;-61
2022/07/23 07:17:17;;;;;;;39.83;24.90;;;;;;;20.57;100.00;100886.19;8266890;28;20562;-61
2022/07/23 07:21:17;;;;;;;32.25;22.08;;;;;;;21.25;96.64;100891.91;8267600;28;20569;-61
2022/07/23 07:25:17;;;;;;;35.25;22.75;;;;;;;21.33;94.63;100900.88;8277288;28;20462;-61
2022/07/23 07:29:18;;;;;;;31.15;20.70;;;;;;;21.25;93.47;100897.41;8271982;28;20042;-61
2022/07/23 07:33:19;;;;;;;28.83;17.90;;;;;;;21.16;90.92;100898.59;8272254;28;20066;-61
2022/07/23 07:37:19;;;;;;;26.80;18.35;;;;;;;20.80;91.38;100897.84;8276427;28;20418;-61
2022/07/23 07:41:23;;;;;;;27.47;17.83;;;;;;;20.54;93.23;100903.06;8276940;28;20466;-61
2022/07/23 07:45:25;;;;;;;30.92;19.80;;;;;;;20.40;93.22;100901.25;8266336;28;20297;-61
2022/07/23 07:49:25;;;;;;;29.83;21.05;;;;;;;20.72;95.80;100900.72;8284233;28;20507;-61
2022/07/23 07:53:26;;;;;;;35.75;22.08;;;;;;;20.67;95.32;100904.06;8277603;28;20470;-61
2022/07/23 07:57:26;;;;;;;37.77;24.93;;;;;;;20.61;96.34;100909.47;8275666;28;20289;-61
2022/07/23 08:01:26;;;;;;;44.93;26.93;;;;;;;20.92;93.69;100915.53;8277510;28;20289;-61
2022/07/23 08:05:29;;;;;;;39.92;24.50;;;;;;;21.25;91.62;100924.91;8270685;28;20273;-61
2022/07/23 08:09:29;;;;;;;38.03;24.50;;;;;;;21.13;94.04;100924.63;8267412;28;20129;-62
2022/07/23 08:13:30;;;;;;;43.17;29.23;;;;;;;20.92;91.74;100934.75;8276451;28;20062;-61
2022/07/23 08:17:30;;;;;;;39.43;27.57;;;;;;;20.94;92.16;100935.41;8286487;28;20277;-61
2022/07/23 08:21:30;;;;;;;44.13;28.10;;;;;;;21.49;91.08;100932.72;8272498;28;20336;-61
2022/07/23 08:25:35;;;;;;;41.22;25.90;;;;;;;22.36;86.56;100931.09;8267918;28;20284;-61
2022/07/23 08:29:35;;;;;;;38.85;26.27;;;;;;;22.42;85.21;100941.28;8270891;28;20072;-61
2022/07/23 08:33:35;;;;;;;41.23;26.70;;;;;;;22.88;87.43;100940.38;8271048;28;20046;-61
2022/07/23 08:37:36;;;;;;;35.55;24.13;;;;;;;23.19;82.88;100937.88;8283360;28;20355;-61
2022/07/23 08:41:39;;;;;;;33.27;24.53;;;;;;;22.62;83.21;100943.09;8271650;28;20038;-61
2022/07/23 08:45:43;;;;;;;32.17;23.20;;;;;;;22.54;84.17;100945.19;8298534;28;20288;-61
2022/07/23 08:49:45;;;;;;;35.88;25.45;;;;;;;22.11;84.50;100944.53;8271654;28;20041;-61
2022/07/23 08:53:46;;;;;;;32.28;23.00;;;;;;;22.77;82.56;100949.28;8282212;28;20457;-61
2022/07/23 08:57:49;;;;;;;27.70;20.90;;;;;;;23.18;79.61;100944.44;8286379;28;20037;-61
2022/07/23 09:01:50;;;;;;;30.30;18.60;;;;;;;23.09;76.18;100945.69;8282396;28;20145;-61
2022/07/23 09:05:52;;;;;;;34.65;20.00;;;;;;;23.35;78.35;100949.53;8280982;28;20232;-61
2022/07/23 09:10:10;;;;;;;23.70;17.15;;;;;;;23.55;77.29;100950.41;8279266;28;20406;-61
2022/07/23 09:14:10;;;;;;;30.73;18.15;;;;;;;23.40;76.56;100958.06;8282154;28;20041;-61
2022/07/23 09:18:16;;;;;;;20.17;15.60;;;;;;;23.73;75.73;100953.34;8281428;28;20064;-61
2022/07/23 09:22:24;;;;;;;24.75;17.05;;;;;;;23.54;77.44;100954.22;8268727;28;20281;-61
2022/07/23 09:26:31;;;;;;;24.92;15.50;;;;;;;23.36;75.31;100951.25;8277697;28;20477;-61
2022/07/23 09:30:34;;;;;;;24.90;15.10;;;;;;;23.63;74.49;100958.47;8283220;28;20053;-61
2022/07/23 09:34:39;;;;;;;27.50;16.52;;;;;;;23.99;74.04;100964.34;8280179;28;20038;-61
2022/07/23 09:38:49;;;;;;;20.05;14.38;;;;;;;23.84;73.25;100958.19;8279666;28;20410;-61
2022/07/23 09:42:56;;;;;;;22.02;14.68;;;;;;;24.30;72.00;100953.41;8282021;28;20034;-61
2022/07/23 09:46:59;;;;;;;22.05;15.27;;;;;;;24.16;70.81;100965.59;8281074;28;20049;-61
2022/07/23 09:51:04;;;;;;;24.42;15.35;;;;;;;25.04;70.44;100954.53;8280924;28;20041;-61
2022/07/23 09:55:06;;;;;;;22.52;13.70;;;;;;;24.52;70.37;100954.81;8281768;28;20045;-61
2022/07/23 09:59:11;;;;;;;14.50;11.70;;;;;;;24.68;69.90;100957.94;8282779;28;20121;-61
2022/07/23 10:03:13;;;;;;;19.05;13.38;;;;;;;25.28;67.31;100958.38;8280613;28;20046;-61
2022/07/23 10:07:16;;;;;;;20.10;14.75;;;;;;;26.19;64.84;100957.50;8279461;28;20097;-61
2022/07/23 10:11:17;;;;;;;21.52;13.77;;;;;;;27.50;61.57;100950.94;8280122;28;20046;-61
2022/07/23 10:15:18;;;;;;;17.50;12.98;;;;;;;28.36;60.31;100946.28;8280789;28;20065;-60
2022/07/23 10:19:19;;;;;;;17.02;12.13;;;;;;;27.44;60.55;100940.78;8280727;28;20133;-60
2022/07/23 10:23:30;;;;;;;13.55;10.63;;;;;;;26.20;61.72;100946.19;8280603;28;20156;-60
2022/07/23 10:27:56;;;;;;;12.70;10.07;;;;;;;26.48;61.05;100943.69;8285262;28;20050;-62
2022/07/23 10:32:13;;;;;;;11.38;9.30;;;;;;;27.99;57.51;100942.16;8277874;28;20041;-61
2022/07/23 10:36:44;;;;;;;13.15;10.20;;;;;;;29.09;54.55;100936.09;8284295;28;20119;-61
2022/07/23 10:40:57;;;;;;;15.73;8.35;;;;;;;29.81;54.15;100940.66;8282149;28;20044;-61
2022/07/23 10:44:58;;;;;;;12.23;7.57;;;;;;;29.88;53.35;100941.31;8278370;28;20050;-61
2022/07/23 10:49:24;;;;;;;11.73;8.98;;;;;;;29.21;54.03;100934.06;8275834;28;20414;-60
2022/07/23 10:53:24;;;;;;;10.20;6.82;;;;;;;29.81;52.19;100932.31;8277450;28;20442;-60
2022/07/23 10:57:26;;;;;;;9.43;7.65;;;;;;;29.81;52.30;100937.88;8282225;28;20045;-59
2022/07/23 11:01:37;;;;;;;8.40;5.60;;;;;;;30.34;49.57;100938.09;8276409;28;20064;-59
2022/07/23 11:05:45;;;;;;;8.77;5.07;;;;;;;29.80;50.22;100926.97;8279625;28;20042;-59
2022/07/23 11:09:47;;;;;;;6.82;5.38;;;;;;;29.54;51.03;100936.00;8277594;28;20107;-60
2022/07/23 11:13:48;;;;;;;7.43;4.13;;;;;;;30.88;48.80;100922.28;8279681;28;20030;-60
2022/07/23 11:22:04;;;;;;;7.72;5.55;;;;;;;31.35;48.33;100916.88;8312229;27;20428;-62
2022/07/23 11:26:05;;;;;;;6.53;5.03;;;;;;;31.14;47.56;100915.84;8306907;28;20065;-57
2022/07/23 11:30:08;;;;;;;9.98;6.80;;;;;;;30.10;49.18;100924.63;8312952;28;20489;-58
2022/07/23 11:34:31;;;;;;;7.32;4.90;;;;;;;30.25;50.10;100928.47;8304460;28;20076;-58
2022/07/23 11:38:32;;;;;;;10.80;6.13;;;;;;;31.48;47.79;100920.06;8289826;28;20120;-58
2022/07/23 11:42:33;;;;;;;8.63;5.10;;;;;;;32.47;46.84;100911.72;8306582;28;20433;-58
2022/07/23 11:46:33;;;;;;;6.40;4.60;;;;;;;31.82;46.76;100917.81;8311965;28;20078;-59
2022/07/23 11:50:34;;;;;;;8.20;5.53;;;;;;;33.10;46.68;100922.53;8309981;28;20095;-58
2022/07/23 11:54:37;;;;;;;7.85;4.93;;;;;;;33.14;45.52;100915.25;8312155;28;20275;-59
2022/07/23 11:58:39;;;;;;;5.90;5.10;;;;;;;31.41;46.95;100918.59;8322171;28;20038;-59
2022/07/23 12:02:41;;;;;;;6.60;5.03;;;;;;;30.40;48.05;100923.09;8311543;28;20092;-58
2022/07/23 12:06:41;;;;;;;8.63;5.70;;;;;;;30.21;49.17;100916.16;8295134;28;20725;-58
2022/07/23 12:10:44;;;;;;;7.57;5.37;;;;;;;31.27;49.16;100909.78;8303420;28;20042;-58
2022/07/23 12:14:54;;;;;;;8.45;4.40;;;;;;;29.46;49.76;100917.75;8297732;28;20288;-59
2022/07/23 12:18:56;;;;;;;6.97;5.13;;;;;;;27.92;54.35;100919.16;8310093;28;20530;-59
2022/07/23 12:23:03;;;;;;;8.27;5.38;;;;;;;27.92;56.31;100908.03;8306776;22;20069;-88
2022/07/23 12:27:15;;;;;;;10.70;5.25;;;;;;;27.22;57.11;100884.06;8246116;28;20144;-88
2022/07/23 12:31:15;;;;;;;10.20;6.22;;;;;;;26.51;56.68;100860.03;8245841;28;20872;-87
2022/07/23 12:35:18;;;;;;;11.40;6.13;;;;;;;26.53;57.35;100852.28;8283053;28;20079;-87
2022/07/23 12:39:33;;;;;;;6.95;4.20;;;;;;;26.97;55.75;100902.88;8207517;23;20056;-52
2022/07/23 12:43:40;;;;;;;7.28;4.82;;;;;;;26.60;53.53;100905.72;8300608;28;20528;-63
2022/07/23 13:04:43;;;;;;;6.47;3.67;;;;;;;27.40;55.85;100901.53;8405045;28;20647;-88
2022/07/23 13:08:44;;;;;;;7.00;3.83;;;;;;;26.99;55.33;100861.84;8362198;28;20127;-88
2022/07/23 13:13:17;;;;;;;6.03;4.30;;;;;;;26.61;56.46;100863.06;8346066;28;20093;-88
2022/07/23 13:17:17;;;;;;;6.97;4.18;;;;;;;26.52;55.12;100895.00;8366767;28;20036;-88
2022/07/23 13:21:21;;;;;;;5.30;3.85;;;;;;;26.95;56.91;100888.41;8357582;28;20048;-88
2022/07/23 13:25:21;;;;;;;7.57;4.43;;;;;;;26.77;56.23;100859.63;8360717;28;20853;-88
2022/07/23 13:29:22;;;;;;;5.82;3.55;;;;;;;27.14;57.42;100859.47;8347794;28;20363;-88
2022/07/23 13:33:32;;;;;;;9.50;4.25;;;;;;;27.53;56.91;100894.91;8375772;28;20089;-86
2022/07/23 13:37:33;;;;;;;5.85;4.32;;;;;;;27.69;57.39;100894.16;8372786;28;20114;-86
2022/07/23 13:41:52;;;;;;;6.30;4.70;;;;;;;27.45;55.33;100895.25;8385209;28;20050;-87
2022/07/23 13:45:53;;;;;;;5.53;3.78;;;;;;;26.78;55.16;100879.91;8381750;28;20040;-88
2022/07/23 13:49:53;;;;;;;6.40;3.50;;;;;;;26.93;57.12;100854.47;8354634;28;20035;-88
2022/07/23 13:53:54;;;;;;;6.80;3.70;;;;;;;27.15;57.13;100894.47;8383735;28;20028;-88
2022/07/23 13:57:58;;;;;;;7.70;3.10;;;;;;;27.12;56.24;100872.72;8354707;28;20039;-89
2022/07/23 14:01:58;;;;;;;;;;;;;;;27.48;55.64;100890.06;8350444;28;20063;-88
2022/07/23 14:05:59;;;;;;;4.30;2.67;;;;;;;27.17;54.83;100889.53;8380970;28;20371;-88
2022/07/23 14:10:00;;;;;;;4.28;3.10;;;;;;;26.67;54.90;100870.47;8387380;28;20028;-89
2022/07/23 14:14:03;;;;;;;4.45;2.85;;;;;;;26.79;53.61;100874.13;8374684;28;20073;-88
2022/07/23 14:18:04;;;;;;;9.85;3.00;;;;;;;26.51;55.77;100836.97;8374531;28;20036;-87
2022/07/23 14:22:04;;;;;;;3.45;2.75;;;;;;;27.40;56.01;100884.00;8420505;28;20035;-88
2022/07/23 14:26:05;;;;;;;2.58;2.35;;;;;;;26.79;54.49;100851.06;8424384;28;20082;-88
2022/07/23 14:30:07;;;;;;;3.92;2.30;;;;;;;26.94;54.66;100872.81;8400572;28;20049;-88
2022/07/23 14:34:08;;;;;;;4.82;2.58;;;;;;;26.79;54.40;100845.53;8351125;28;20069;-89
2022/07/23 14:38:08;;;;;;;3.75;2.67;;;;;;;27.05;54.21;100866.44;8404047;28;20105;-88
2022/07/23 14:42:09;;;;;;;4.25;2.38;;;;;;;27.07;53.93;100869.84;8376339;28;20062;-88
2022/07/23 14:46:15;;;;;;;3.40;2.60;;;;;;;26.91;53.60;100867.75;8400138;28;20564;-88
2022/07/23 14:50:16;;;;;;;4.47;2.60;;;;;;;26.47;55.08;100814.41;8390389;28;20039;-88
2022/07/23 14:54:17;;;;;;;6.15;2.88;;;;;;;26.98;54.08;100810.22;8357556;28;20385;-88
2022/07/23 14:58:17;;;;;;;3.17;2.40;;;;;;;27.10;54.37;100861.00;8364071;28;20292;-88
2022/07/23 15:02:18;;;;;;;6.82;2.97;;;;;;;26.58;55.01;100837.72;8403116;28;20097;-88
2022/07/23 15:06:18;;;;;;;4.07;2.75;;;;;;;26.78;55.37;100855.75;8354154;28;20127;-88
2022/07/23 15:10:19;;;;;;;5.65;2.67;;;;;;;26.68;55.14;100822.22;8368773;28;20040;-89
2022/07/23 15:14:19;;;;;;;4.55;2.88;;;;;;;26.39;55.59;100795.34;8379175;28;20500;-89
2022/07/23 15:18:20;;;;;;;4.03;2.80;;;;;;;26.81;55.98;100838.63;8403530;28;20039;-88
2022/07/23 15:22:22;;;;;;;2.80;2.35;;;;;;;27.02;54.46;100812.25;8372719;28;20040;-88
2022/07/23 15:26:23;;;;;;;4.63;2.28;;;;;;;27.37;54.25;100853.94;8366180;28;20545;-88
2022/07/23 15:35:42;;;;;;;4.22;2.15;;;;;;;27.01;53.07;100813.31;8341918;28;20273;-88
2022/07/23 15:39:43;;;;;;;3.38;2.30;;;;;;;26.96;51.96;100862.31;8325154;28;20057;-88
2022/07/23 15:43:43;;;;;;;4.60;2.33;;;;;;;27.20;53.33;100869.59;8365178;28;20058;-87
2022/07/23 15:47:46;;;;;;;3.38;2.40;;;;;;;26.93;53.17;100840.59;8362545;28;20036;-89
2022/07/23 15:51:46;;;;;;;8.10;2.70;;;;;;;27.00;52.60;100838.53;8362600;28;20032;-89
2022/07/23 15:55:49;;;;;;;6.00;2.65;;;;;;;27.05;52.30;100802.59;8343527;28;20085;-89
2022/07/23 15:59:50;;;;;;;5.05;2.72;;;;;;;27.03;52.41;100807.53;8358314;28;20431;-88
2022/07/23 16:03:50;;;;;;;3.47;2.67;;;;;;;27.08;53.00;100821.56;8376570;28;20072;-88
2022/07/23 16:07:51;;;;;;;2.90;2.22;;;;;;;27.03;53.03;100849.19;8385279;28;20078;-89
2022/07/23 16:11:53;;;;;;;3.25;2.30;;;;;;;27.03;53.35;100840.84;8381329;28;20122;-89
2022/07/23 16:15:54;;;;;;;3.50;2.33;;;;;;;26.90;53.66;100829.97;8364930;28;20036;-88
2022/07/23 16:19:54;;;;;;;2.80;2.40;;;;;;;26.76;53.70;100802.47;8379215;28;20043;-88
2022/07/23 16:23:55;;;;;;;2.75;2.53;;;;;;;26.79;53.79;100824.19;8364411;28;20035;-88
2022/07/23 16:27:59;;;;;;;5.00;2.00;;;;;;;26.71;54.40;100807.00;8365053;28;20036;-89
2022/07/23 16:31:59;;;;;;;5.55;2.38;;;;;;;26.88;53.98;100826.59;8365077;28;20293;-88
2022/07/23 16:36:00;;;;;;;4.80;2.60;;;;;;;27.02;53.54;100847.50;8354559;28;20462;-88
2022/07/23 16:40:01;;;;;;;2.72;2.33;;;;;;;26.90;53.88;100838.31;8385258;28;20051;-89
2022/07/23 16:44:01;;;;;;;4.30;2.80;;;;;;;26.99;53.76;100845.19;8374196;28;20051;-89
2022/07/23 16:48:22;;;;;;;4.00;2.25;;;;;;;26.91;53.03;100842.75;8365136;28;20063;-88
2022/07/23 16:52:23;;;;;;;4.50;3.08;;;;;;;26.70;53.65;100814.50;8380501;28;20051;-88
2022/07/23 16:56:23;;;;;;;4.95;2.40;;;;;;;26.98;56.43;100824.09;8373615;28;20054;-88
2022/07/23 17:00:24;;;;;;;3.88;3.05;;;;;;;27.08;56.41;100843.75;8388245;28;20043;-88
2022/07/23 17:04:24;;;;;;;2.72;2.40;;;;;;;27.00;55.22;100846.88;8401045;28;20063;-89
2022/07/23 17:08:25;;;;;;;6.28;2.58;;;;;;;26.89;55.64;100834.66;8380337;28;20542;-88
2022/07/23 17:12:25;;;;;;;9.02;2.92;;;;;;;26.95;55.85;100838.44;8369768;28;20047;-88
2022/07/23 17:16:26;;;;;;;4.10;2.60;;;;;;;27.16;55.26;100847.03;8367208;28;20044;-88
2022/07/23 17:20:26;;;;;;;5.43;2.78;;;;;;;27.23;55.34;100852.47;8376391;28;20207;-88
2022/07/23 17:24:27;;;;;;;7.68;3.03;;;;;;;27.13;55.57;100841.09;8396604;28;20040;-89
2022/07/23 17:28:28;;;;;;;4.50;2.85;;;;;;;27.03;54.32;100851.94;8365057;28;20610;-88
2022/07/23 17:32:28;;;;;;;24.83;4.93;;;;;;;27.41;56.48;100849.59;8380205;28;20048;-87
2022/07/23 17:36:29;;;;;;;7.65;3.20;;;;;;;26.96;57.12;100840.13;8371432;28;20112;-88
2022/07/23 17:40:30;;;;;;;4.20;2.63;;;;;;;27.01;55.68;100849.41;8379263;28;20040;-88
2022/07/23 17:44:30;;;;;;;4.30;2.55;;;;;;;27.00;55.57;100835.78;8357299;28;20035;-88
2022/07/23 17:48:31;;;;;;;4.32;2.70;;;;;;;26.96;56.80;100837.34;8389057;28;20043;-88
2022/07/23 17:52:32;;;;;;;4.35;2.90;;;;;;;26.77;56.14;100842.97;8381011;28;20036;-88
2022/07/23 17:56:32;;;;;;;4.03;2.75;;;;;;;26.62;56.24;100834.25;8360606;28;20047;-89
2022/07/23 18:00:35;;;;;;;4.88;2.90;;;;;;;26.69;56.95;100843.31;8352828;28;20142;-89
2022/07/23 18:04:37;;;;;;;4.72;2.70;;;;;;;26.53;56.57;100829.28;8359434;28;20050;-88
2022/07/23 18:08:38;;;;;;;4.93;2.90;;;;;;;26.46;56.71;100829.34;8360738;28;20076;-89
2022/07/23 18:12:39;;;;;;;11.82;3.83;;;;;;;26.54;57.88;100842.06;8346229;28;20059;-88
2022/07/23 18:16:40;;;;;;;7.15;2.85;;;;;;;26.69;59.54;100861.91;8351376;28;20225;-89
2022/07/23 18:20:41;;;;;;;5.32;2.78;;;;;;;26.62;57.51;100850.03;8373096;28;20165;-89
2022/07/23 18:24:42;;;;;;;4.97;2.78;;;;;;;26.56;58.17;100860.13;8343180;28;20036;-89
2022/07/23 18:28:42;;;;;;;5.00;2.90;;;;;;;26.47;58.78;100864.31;8356527;28;20360;-87
2022/07/23 18:32:43;;;;;;;12.27;3.72;;;;;;;26.40;58.29;100869.13;8375046;28;20054;-88
2022/07/23 18:36:43;;;;;;;9.63;2.58;;;;;;;26.25;58.61;100851.22;8368418;28;20035;-88
2022/07/23 18:40:46;;;;;;;2.92;2.28;;;;;;;26.32;59.58;100863.91;8358415;28;20078;-87
2022/07/23 18:44:47;;;;;;;2.63;2.15;;;;;;;26.18;58.82;100848.53;8369109;28;20048;-88
2022/07/23 18:48:47;;;;;;;8.48;2.60;;;;;;;26.21;60.06;100878.56;8373840;28;20071;-88
2022/07/23 18:52:50;;;;;;;4.80;2.55;;;;;;;26.17;59.15;100880.09;8378273;28;20480;-88